Time,TemperatureF,DewpointF,PressureIn,WindDirection,WindDirectionDegrees,WindSpeedMPH,WindSpeedGustMPH,Humidity,HourlyPrecipIn,Conditions,Clouds,dailyrainin,SoftwareType,DateUTC
2013-08-11 00:02:00,75.4,66.6,28.62,NE,45,0.0,1.0,74,0.00,,,0.00,meteohub,2013-08-11 05:02:00,
2013-08-11 00:07:00,75.2,66.7,28.62,East,90,0.0,1.0,75,0.00,,,0.00,meteohub,2013-08-11 05:07:00,
2013-08-11 00:12:00,75.0,66.6,28.61,NE,45,1.0,1.0,75,0.00,,,0.00,meteohub,2013-08-11 05:12:00,
2013-08-11 00:17:00,75.0,66.9,28.61,East,90,1.0,1.0,76,0.00,,,0.00,meteohub,2013-08-11 05:17:00,
2013-08-11 00:22:00,75.0,66.9,28.61,East,90,0.0,1.0,76,0.00,,,0.00,meteohub,2013-08-11 05:22:00,
2013-08-11 00:27:00,75.0,66.9,28.61,East,90,0.0,1.0,76,0.00,,,0.00,meteohub,2013-08-11 05:27:00,
2013-08-11 00:32:00,75.0,66.9,28.60,North,0,1.0,2.0,76,0.00,,,0.00,meteohub,2013-08-11 05:32:00,
2013-08-11 00:37:00,75.4,67.3,28.61,NE,45,1.0,2.0,76,0.00,,,0.00,meteohub,2013-08-11 05:37:00,
2013-08-11 00:42:00,75.2,67.5,28.61,East,90,0.0,2.0,77,0.00,,,0.00,meteohub,2013-08-11 05:42:00,
2013-08-11 00:47:00,75.0,67.3,28.61,North,0,1.0,1.0,77,0.00,,,0.00,meteohub,2013-08-11 05:47:00,
2013-08-11 00:52:00,74.7,67.3,28.61,East,90,1.0,1.0,78,0.00,,,0.00,meteohub,2013-08-11 05:52:00,
2013-08-11 00:58:00,74.5,67.1,28.61,NE,45,1.0,1.0,78,0.00,,,0.00,meteohub,2013-08-11 05:58:00,
2013-08-11 01:03:00,74.7,67.3,28.61,East,90,1.0,1.0,78,0.00,,,0.00,meteohub,2013-08-11 06:03:00,
2013-08-11 01:08:00,74.5,67.1,28.61,East,90,1.0,1.0,78,0.00,,,0.00,meteohub,2013-08-11 06:08:00,
2013-08-11 01:13:00,74.3,66.9,28.60,NE,45,1.0,1.0,78,0.00,,,0.00,meteohub,2013-08-11 06:13:00,
2013-08-11 01:18:00,74.3,67.3,28.60,NE,45,1.0,1.0,79,0.00,,,0.00,meteohub,2013-08-11 06:18:00,
2013-08-11 01:24:00,74.1,66.7,28.61,East,90,0.0,1.0,78,0.00,,,0.00,meteohub,2013-08-11 06:24:00,
2013-08-11 01:29:00,73.9,67.1,28.61,NE,45,1.0,1.0,79,0.00,,,0.00,meteohub,2013-08-11 06:29:00,
2013-08-11 01:34:00,73.9,67.1,28.61,NE,45,1.0,1.0,79,0.00,,,0.00,meteohub,2013-08-11 06:34:00,
2013-08-11 01:39:00,73.8,66.9,28.61,NE,45,0.0,1.0,79,0.00,,,0.00,meteohub,2013-08-11 06:39:00,
2013-08-11 01:45:00,73.8,66.9,28.60,East,90,1.0,1.0,79,0.00,,,0.00,meteohub,2013-08-11 06:45:00,
2013-08-11 01:50:00,74.1,67.6,28.60,East,90,1.0,1.0,80,0.00,,,0.00,meteohub,2013-08-11 06:50:00,
2013-08-11 01:55:00,73.9,67.5,28.60,East,90,0.0,2.0,80,0.00,,,0.00,meteohub,2013-08-11 06:55:00,
2013-08-11 02:00:00,73.9,67.8,28.60,NE,45,2.0,2.0,81,0.00,,,0.00,meteohub,2013-08-11 07:00:00,
2013-08-11 02:05:00,73.9,67.5,28.60,NE,45,0.0,2.0,80,0.00,,,0.00,meteohub,2013-08-11 07:05:00,
2013-08-11 02:10:00,73.8,67.6,28.60,East,90,1.0,2.0,81,0.00,,,0.00,meteohub,2013-08-11 07:10:00,
2013-08-11 02:16:00,73.4,67.3,28.60,NE,45,0.0,2.0,81,0.00,,,0.00,meteohub,2013-08-11 07:16:00,
2013-08-11 02:21:00,73.4,67.6,28.60,NE,45,1.0,2.0,82,0.00,,,0.00,meteohub,2013-08-11 07:21:00,
2013-08-11 02:26:00,73.2,67.5,28.60,NE,45,1.0,2.0,82,0.00,,,0.00,meteohub,2013-08-11 07:26:00,
2013-08-11 02:31:00,72.9,67.5,28.59,East,90,1.0,2.0,83,0.00,,,0.00,meteohub,2013-08-11 07:31:00,
2013-08-11 02:36:00,72.7,67.3,28.59,East,90,1.0,2.0,83,0.00,,,0.00,meteohub,2013-08-11 07:36:00,
2013-08-11 02:41:00,72.7,67.3,28.60,East,90,1.0,2.0,83,0.00,,,0.00,meteohub,2013-08-11 07:41:00,
2013-08-11 02:46:00,72.5,67.1,28.59,East,90,0.0,1.0,83,0.00,,,0.00,meteohub,2013-08-11 07:46:00,
2013-08-11 02:51:00,72.9,67.5,28.59,East,90,0.0,1.0,83,0.00,,,0.00,meteohub,2013-08-11 07:51:00,
2013-08-11 02:56:00,72.5,67.5,28.59,NE,45,0.0,1.0,84,0.00,,,0.00,meteohub,2013-08-11 07:56:00,
2013-08-11 03:01:00,72.7,67.6,28.59,NE,45,0.0,1.0,84,0.00,,,0.00,meteohub,2013-08-11 08:01:00,
2013-08-11 03:06:00,72.5,67.5,28.58,East,90,0.0,1.0,84,0.00,,,0.00,meteohub,2013-08-11 08:06:00,
2013-08-11 03:12:00,72.7,67.6,28.58,NE,45,0.0,1.0,84,0.00,,,0.00,meteohub,2013-08-11 08:12:00,
2013-08-11 03:17:00,72.5,67.5,28.58,East,90,0.0,1.0,84,0.00,,,0.00,meteohub,2013-08-11 08:17:00,
2013-08-11 03:23:00,72.3,67.3,28.58,East,90,0.0,1.0,84,0.00,,,0.00,meteohub,2013-08-11 08:23:00,
2013-08-11 03:28:00,72.3,67.6,28.58,SE,135,1.0,0.0,85,0.00,,,0.00,meteohub,2013-08-11 08:28:00,
2013-08-11 03:33:00,72.0,67.3,28.58,NE,45,0.0,1.0,85,0.00,,,0.00,meteohub,2013-08-11 08:33:00,
2013-08-11 03:38:00,72.1,67.5,28.59,NE,45,1.0,1.0,85,0.00,,,0.00,meteohub,2013-08-11 08:38:00,
2013-08-11 03:43:00,72.1,67.5,28.59,NE,45,0.0,1.0,85,0.00,,,0.00,meteohub,2013-08-11 08:43:00,
2013-08-11 03:48:00,72.1,67.6,28.59,NE,45,0.0,1.0,86,0.00,,,0.00,meteohub,2013-08-11 08:48:00,
2013-08-11 03:54:00,72.1,68.0,28.59,NE,45,1.0,1.0,87,0.00,,,0.00,meteohub,2013-08-11 08:54:00,
2013-08-11 03:59:00,72.3,67.6,28.58,NE,45,1.0,1.0,85,0.00,,,0.00,meteohub,2013-08-11 08:59:00,
2013-08-11 04:04:00,72.1,67.5,28.58,NE,45,1.0,2.0,85,0.00,,,0.00,meteohub,2013-08-11 09:04:00,
2013-08-11 04:09:00,72.1,67.5,28.58,SE,135,1.0,2.0,85,0.00,,,0.00,meteohub,2013-08-11 09:09:00,
2013-08-11 04:15:00,71.8,67.1,28.58,North,0,1.0,2.0,85,0.00,,,0.00,meteohub,2013-08-11 09:15:00,
2013-08-11 04:20:00,72.0,67.5,28.58,NE,45,0.0,1.0,86,0.00,,,0.00,meteohub,2013-08-11 09:20:00,
2013-08-11 04:25:00,71.6,67.1,28.58,NE,45,0.0,1.0,86,0.00,,,0.00,meteohub,2013-08-11 09:25:00,
2013-08-11 04:30:00,71.6,67.5,28.58,NE,45,0.0,1.0,87,0.00,,,0.00,meteohub,2013-08-11 09:30:00,
2013-08-11 04:35:00,71.6,67.5,28.58,NE,45,0.0,1.0,87,0.00,,,0.00,meteohub,2013-08-11 09:35:00,
2013-08-11 04:40:00,71.6,67.8,28.58,East,90,0.0,1.0,88,0.00,,,0.00,meteohub,2013-08-11 09:40:00,
2013-08-11 04:45:00,71.6,67.8,28.58,East,90,0.0,1.0,88,0.00,,,0.00,meteohub,2013-08-11 09:45:00,
2013-08-11 04:50:00,71.1,67.3,28.58,NE,45,1.0,1.0,88,0.00,,,0.00,meteohub,2013-08-11 09:50:00,
2013-08-11 04:56:00,71.4,67.6,28.58,NE,45,0.0,1.0,88,0.00,,,0.00,meteohub,2013-08-11 09:56:00,
2013-08-11 05:01:00,71.1,67.6,28.57,East,90,0.0,1.0,89,0.00,,,0.00,meteohub,2013-08-11 10:01:00,
2013-08-11 05:07:00,71.1,67.6,28.57,NE,45,0.0,1.0,89,0.00,,,0.00,meteohub,2013-08-11 10:07:00,
2013-08-11 05:12:00,71.2,67.8,28.57,East,90,0.0,1.0,89,0.00,,,0.00,meteohub,2013-08-11 10:12:00,
2013-08-11 05:17:00,71.1,67.6,28.57,East,90,0.0,1.0,89,0.00,,,0.00,meteohub,2013-08-11 10:17:00,
2013-08-11 05:22:00,71.1,67.6,28.57,East,90,0.0,1.0,89,0.00,,,0.00,meteohub,2013-08-11 10:22:00,
2013-08-11 05:27:00,70.7,67.3,28.57,East,90,0.0,1.0,89,0.00,,,0.00,meteohub,2013-08-11 10:27:00,
2013-08-11 05:32:00,70.9,67.5,28.57,East,90,0.0,1.0,89,0.00,,,0.00,meteohub,2013-08-11 10:32:00,
2013-08-11 05:37:00,70.9,67.5,28.58,East,90,0.0,1.0,89,0.00,,,0.00,meteohub,2013-08-11 10:37:00,
2013-08-11 05:43:00,71.1,67.6,28.57,East,90,1.0,1.0,89,0.00,,,0.00,meteohub,2013-08-11 10:43:00,
2013-08-11 05:48:00,71.1,67.6,28.57,NE,45,0.0,1.0,89,0.00,,,0.00,meteohub,2013-08-11 10:48:00,
2013-08-11 05:53:00,70.9,67.5,28.58,East,90,0.0,1.0,89,0.00,,,0.00,meteohub,2013-08-11 10:53:00,
2013-08-11 05:58:00,71.1,67.6,28.58,East,90,0.0,1.0,89,0.00,,,0.00,meteohub,2013-08-11 10:58:00,
2013-08-11 06:03:00,71.2,67.8,28.58,East,90,0.0,2.0,89,0.00,,,0.00,meteohub,2013-08-11 11:03:00,
2013-08-11 06:08:00,71.1,67.6,28.58,NE,45,0.0,2.0,89,0.00,,,0.00,meteohub,2013-08-11 11:08:00,
2013-08-11 06:13:00,71.2,67.8,28.58,East,90,0.0,2.0,89,0.00,,,0.00,meteohub,2013-08-11 11:13:00,
2013-08-11 06:18:00,70.9,67.5,28.58,East,90,0.0,1.0,89,0.00,,,0.00,meteohub,2013-08-11 11:18:00,
2013-08-11 06:23:00,71.1,67.6,28.58,East,90,1.0,1.0,89,0.00,,,0.00,meteohub,2013-08-11 11:23:00,
2013-08-11 06:28:00,71.1,67.6,28.58,East,90,0.0,1.0,89,0.00,,,0.00,meteohub,2013-08-11 11:28:00,
2013-08-11 06:34:00,70.9,67.5,28.58,East,90,0.0,1.0,89,0.00,,,0.00,meteohub,2013-08-11 11:34:00,
2013-08-11 06:39:00,70.9,67.5,28.59,East,90,0.0,1.0,89,0.00,,,0.00,meteohub,2013-08-11 11:39:00,
2013-08-11 06:44:00,70.9,67.5,28.59,East,90,0.0,1.0,89,0.00,,,0.00,meteohub,2013-08-11 11:44:00,
2013-08-11 06:49:00,70.7,67.3,28.60,East,90,0.0,1.0,89,0.00,,,0.00,meteohub,2013-08-11 11:49:00,
2013-08-11 06:54:00,70.7,67.3,28.60,East,90,0.0,1.0,89,0.00,,,0.00,meteohub,2013-08-11 11:54:00,
2013-08-11 06:59:00,70.5,67.1,28.60,East,90,0.0,1.0,89,0.00,,,0.00,meteohub,2013-08-11 11:59:00,
2013-08-11 07:04:00,70.3,67.3,28.60,East,90,0.0,0.0,90,0.00,,,0.00,meteohub,2013-08-11 12:04:00,
2013-08-11 07:09:00,70.7,67.6,28.61,East,90,0.0,1.0,90,0.00,,,0.00,meteohub,2013-08-11 12:09:00,
2013-08-11 07:14:00,70.7,67.6,28.62,East,90,1.0,1.0,90,0.00,,,0.00,meteohub,2013-08-11 12:14:00,
2013-08-11 07:19:00,70.9,67.8,28.61,East,90,1.0,1.0,90,0.00,,,0.00,meteohub,2013-08-11 12:19:00,
2013-08-11 07:25:00,71.1,68.0,28.62,East,90,1.0,1.0,90,0.00,,,0.00,meteohub,2013-08-11 12:25:00,
2013-08-11 07:30:00,71.2,68.2,28.62,East,90,1.0,1.0,90,0.00,,,0.00,meteohub,2013-08-11 12:30:00,
2013-08-11 07:35:00,71.6,68.5,28.62,East,90,1.0,1.0,90,0.00,,,0.00,meteohub,2013-08-11 12:35:00,
2013-08-11 07:41:00,71.2,68.2,28.63,East,90,1.0,1.0,90,0.00,,,0.00,meteohub,2013-08-11 12:41:00,
2013-08-11 07:46:00,71.6,68.5,28.63,East,90,0.0,1.0,90,0.00,,,0.00,meteohub,2013-08-11 12:46:00,
2013-08-11 07:51:00,71.8,68.4,28.62,SE,135,0.0,1.0,89,0.00,,,0.00,meteohub,2013-08-11 12:51:00,
2013-08-11 07:56:00,72.7,69.3,28.62,East,90,2.0,2.0,89,0.00,,,0.00,meteohub,2013-08-11 12:56:00,
2013-08-11 08:01:00,73.4,69.3,28.62,North,0,1.0,2.0,87,0.00,,,0.00,meteohub,2013-08-11 13:01:00,
2013-08-11 08:06:00,73.4,68.9,28.62,East,90,0.0,2.0,86,0.00,,,0.00,meteohub,2013-08-11 13:06:00,
2013-08-11 08:11:00,73.9,69.8,28.63,East,90,1.0,2.0,87,0.00,,,0.00,meteohub,2013-08-11 13:11:00,
2013-08-11 08:16:00,74.1,69.6,28.63,NE,45,1.0,1.0,86,0.00,,,0.00,meteohub,2013-08-11 13:16:00,
2013-08-11 08:22:00,74.5,69.6,28.63,SE,135,2.0,2.0,85,0.00,,,0.00,meteohub,2013-08-11 13:22:00,
2013-08-11 08:27:00,75.2,69.6,28.63,East,90,1.0,2.0,83,0.00,,,0.00,meteohub,2013-08-11 13:27:00,
2013-08-11 08:32:00,75.6,69.6,28.63,East,90,1.0,2.0,82,0.00,,,0.00,meteohub,2013-08-11 13:32:00,
2013-08-11 08:37:00,75.7,69.4,28.63,SE,135,1.0,2.0,81,0.00,,,0.00,meteohub,2013-08-11 13:37:00,
2013-08-11 08:42:00,76.1,69.8,28.63,NE,45,1.0,2.0,81,0.00,,,0.00,meteohub,2013-08-11 13:42:00,
2013-08-11 08:47:00,76.6,70.0,28.63,East,90,1.0,2.0,80,0.00,,,0.00,meteohub,2013-08-11 13:47:00,
2013-08-11 08:52:00,77.4,70.3,28.63,NE,45,5.0,5.0,79,0.00,,,0.00,meteohub,2013-08-11 13:52:00,
2013-08-11 08:57:00,78.1,70.7,28.63,East,90,1.0,6.0,78,0.00,,,0.00,meteohub,2013-08-11 13:57:00,
2013-08-11 09:02:00,78.6,70.3,28.63,NE,45,1.0,6.0,76,0.00,,,0.00,meteohub,2013-08-11 14:02:00,
2013-08-11 09:07:00,78.8,70.2,28.64,East,90,6.0,6.0,75,0.00,,,0.00,meteohub,2013-08-11 14:07:00,
2013-08-11 09:12:00,78.6,70.0,28.63,East,90,7.0,8.0,75,0.00,,,0.00,meteohub,2013-08-11 14:12:00,
2013-08-11 09:17:00,78.8,70.2,28.64,East,90,1.0,8.0,75,0.00,,,0.00,meteohub,2013-08-11 14:17:00,
2013-08-11 09:22:00,79.7,70.7,28.64,East,90,3.0,8.0,74,0.00,,,0.00,meteohub,2013-08-11 14:22:00,
2013-08-11 09:27:00,80.4,70.2,28.64,South,180,8.0,8.0,71,0.00,,,0.00,meteohub,2013-08-11 14:27:00,
2013-08-11 09:33:00,80.4,70.2,28.63,ESE,113,2.0,8.0,71,0.00,,,0.00,meteohub,2013-08-11 14:33:00,
2013-08-11 09:38:00,81.1,70.3,28.64,East,90,5.0,11.0,70,0.00,,,0.00,meteohub,2013-08-11 14:38:00,
2013-08-11 09:43:00,81.1,70.0,28.64,SE,135,4.0,11.0,69,0.00,,,0.00,meteohub,2013-08-11 14:43:00,
2013-08-11 09:48:00,81.5,70.3,28.64,East,90,5.0,8.0,69,0.00,,,0.00,meteohub,2013-08-11 14:48:00,
2013-08-11 09:53:00,81.5,70.3,28.63,East,90,4.0,8.0,69,0.00,,,0.00,meteohub,2013-08-11 14:53:00,
2013-08-11 09:59:00,81.9,70.3,28.63,South,180,1.0,8.0,68,0.00,,,0.00,meteohub,2013-08-11 14:59:00,
2013-08-11 10:04:00,82.4,70.3,28.63,East,90,2.0,6.0,67,0.00,,,0.00,meteohub,2013-08-11 15:04:00,
2013-08-11 10:09:00,82.8,70.2,28.63,East,90,0.0,6.0,66,0.00,,,0.00,meteohub,2013-08-11 15:09:00,
2013-08-11 10:14:00,83.7,70.2,28.63,West,270,2.0,6.0,64,0.00,,,0.00,meteohub,2013-08-11 15:14:00,
2013-08-11 10:19:00,84.4,70.0,28.63,East,90,1.0,7.0,62,0.00,,,0.00,meteohub,2013-08-11 15:19:00,
2013-08-11 10:24:00,84.6,70.2,28.63,ENE,68,4.0,7.0,62,0.00,,,0.00,meteohub,2013-08-11 15:24:00,
2013-08-11 10:29:00,85.3,70.7,28.63,NE,45,1.0,7.0,62,0.00,,,0.00,meteohub,2013-08-11 15:29:00,
2013-08-11 10:35:00,85.5,70.0,28.63,SE,135,1.0,4.0,60,0.00,,,0.00,meteohub,2013-08-11 15:35:00,
2013-08-11 10:39:00,86.2,69.6,28.63,East,90,0.0,4.0,58,0.00,,,0.00,meteohub,2013-08-11 15:39:00,
2013-08-11 10:45:00,86.5,70.0,28.63,SSE,158,1.0,4.0,58,0.00,,,0.00,meteohub,2013-08-11 15:45:00,
2013-08-11 10:50:00,87.1,70.0,28.63,North,0,1.0,4.0,57,0.00,,,0.00,meteohub,2013-08-11 15:50:00,
2013-08-11 10:55:00,87.4,69.3,28.63,SW,225,1.0,4.0,55,0.00,,,0.00,meteohub,2013-08-11 15:55:00,
2013-08-11 11:00:00,87.4,68.2,28.63,North,0,0.0,4.0,53,0.00,,,0.00,meteohub,2013-08-11 16:00:00,
2013-08-11 11:05:00,87.8,69.6,28.63,East,90,1.0,4.0,55,0.00,,,0.00,meteohub,2013-08-11 16:05:00,
2013-08-11 11:11:00,88.0,69.3,28.63,NW,315,0.0,4.0,54,0.00,,,0.00,meteohub,2013-08-11 16:11:00,
2013-08-11 11:17:00,88.5,69.3,28.63,SE,135,2.0,4.0,53,0.00,,,0.00,meteohub,2013-08-11 16:17:00,
2013-08-11 11:22:00,88.7,69.4,28.62,NE,45,1.0,2.0,53,0.00,,,0.00,meteohub,2013-08-11 16:22:00,
2013-08-11 11:27:00,88.9,68.4,28.63,East,90,1.0,4.0,51,0.00,,,0.00,meteohub,2013-08-11 16:27:00,
2013-08-11 11:32:00,89.1,69.1,28.62,NE,45,1.0,4.0,52,0.00,,,0.00,meteohub,2013-08-11 16:32:00,
2013-08-11 11:37:00,89.2,68.7,28.62,NE,45,1.0,4.0,51,0.00,,,0.00,meteohub,2013-08-11 16:37:00,
2013-08-11 11:42:00,90.3,69.1,28.62,South,180,1.0,4.0,50,0.00,,,0.00,meteohub,2013-08-11 16:42:00,
2013-08-11 11:47:00,89.4,67.1,28.62,West,270,5.0,5.0,48,0.00,,,0.00,meteohub,2013-08-11 16:47:00,
2013-08-11 11:52:00,89.4,68.4,28.62,SW,225,4.0,6.0,50,0.00,,,0.00,meteohub,2013-08-11 16:52:00,
2013-08-11 11:57:00,89.8,68.0,28.62,East,90,1.0,6.0,49,0.00,,,0.00,meteohub,2013-08-11 16:57:00,
2013-08-11 12:02:00,90.3,66.7,28.61,SE,135,1.0,6.0,46,0.00,,,0.00,meteohub,2013-08-11 17:02:00,
2013-08-11 12:07:00,90.7,68.4,28.61,East,90,1.0,4.0,48,0.00,,,0.00,meteohub,2013-08-11 17:07:00,
2013-08-11 12:12:00,91.4,67.6,28.61,East,90,1.0,4.0,46,0.00,,,0.00,meteohub,2013-08-11 17:12:00,
2013-08-11 12:17:00,92.5,68.0,28.61,SE,135,1.0,4.0,45,0.00,,,0.00,meteohub,2013-08-11 17:17:00,
2013-08-11 12:22:00,92.3,66.6,28.61,SW,225,4.0,4.0,43,0.00,,,0.00,meteohub,2013-08-11 17:22:00,
2013-08-11 12:27:00,92.5,66.0,28.61,SW,225,7.0,7.0,42,0.00,,,0.00,meteohub,2013-08-11 17:27:00,
2013-08-11 12:32:00,91.9,66.2,28.61,West,270,4.0,7.0,43,0.00,,,0.00,meteohub,2013-08-11 17:32:00,
2013-08-11 12:38:00,91.0,66.0,28.60,North,0,4.0,8.0,44,0.00,,,0.00,meteohub,2013-08-11 17:38:00,
2013-08-11 12:43:00,91.4,67.6,28.60,West,270,3.0,8.0,46,0.00,,,0.00,meteohub,2013-08-11 17:43:00,
2013-08-11 12:48:00,91.4,67.1,28.60,South,180,4.0,8.0,45,0.00,,,0.00,meteohub,2013-08-11 17:48:00,
2013-08-11 12:53:00,91.4,67.6,28.60,West,270,3.0,8.0,46,0.00,,,0.00,meteohub,2013-08-11 17:53:00,
2013-08-11 12:58:00,92.3,67.3,28.59,East,90,1.0,8.0,44,0.00,,,0.00,meteohub,2013-08-11 17:58:00,
2013-08-11 13:04:00,93.7,66.6,28.59,SSW,203,2.0,8.0,41,0.00,,,0.00,meteohub,2013-08-11 18:04:00,
2013-08-11 13:09:00,94.8,66.0,28.59,SW,225,6.0,6.0,39,0.00,,,0.00,meteohub,2013-08-11 18:09:00,
2013-08-11 13:14:00,93.9,65.8,28.59,SW,225,4.0,5.0,40,0.00,,,0.00,meteohub,2013-08-11 18:14:00,
2013-08-11 13:19:00,93.4,66.2,28.59,South,180,2.0,7.0,41,0.00,,,0.00,meteohub,2013-08-11 18:19:00,
2013-08-11 13:24:00,93.0,66.6,28.58,WSW,248,7.0,7.0,42,0.00,,,0.00,meteohub,2013-08-11 18:24:00,
2013-08-11 13:29:00,92.8,67.1,28.58,West,270,2.0,8.0,43,0.00,,,0.00,meteohub,2013-08-11 18:29:00,
2013-08-11 13:34:00,93.4,66.9,28.58,East,90,8.0,8.0,42,0.00,,,0.00,meteohub,2013-08-11 18:34:00,
2013-08-11 13:40:00,92.8,66.4,28.58,West,270,8.0,8.0,42,0.00,,,0.00,meteohub,2013-08-11 18:40:00,
2013-08-11 13:45:00,93.4,66.9,28.58,East,90,5.0,8.0,42,0.00,,,0.00,meteohub,2013-08-11 18:45:00,
2013-08-11 13:50:00,94.8,66.7,28.58,SW,225,8.0,8.0,40,0.00,,,0.00,meteohub,2013-08-11 18:50:00,
2013-08-11 13:55:00,95.2,66.4,28.58,NW,315,2.0,8.0,39,0.00,,,0.00,meteohub,2013-08-11 18:55:00,
2013-08-11 14:00:00,95.4,66.6,28.58,NNW,338,5.0,8.0,39,0.00,,,0.00,meteohub,2013-08-11 19:00:00,
2013-08-11 14:05:00,95.4,67.3,28.58,SW,225,3.0,8.0,40,0.00,,,0.00,meteohub,2013-08-11 19:05:00,
2013-08-11 14:10:00,95.5,67.3,28.57,South,180,1.0,8.0,40,0.00,,,0.00,meteohub,2013-08-11 19:10:00,
2013-08-11 14:15:00,95.5,66.6,28.57,SW,225,5.0,10.0,39,0.00,,,0.00,meteohub,2013-08-11 19:15:00,
2013-08-11 14:21:00,95.7,66.0,28.57,SW,225,8.0,10.0,38,0.00,,,0.00,meteohub,2013-08-11 19:21:00,
2013-08-11 14:27:00,95.7,66.0,28.57,West,270,9.0,10.0,38,0.00,,,0.00,meteohub,2013-08-11 19:27:00,
2013-08-11 14:32:00,95.7,66.7,28.56,North,0,3.0,9.0,39,0.00,,,0.00,meteohub,2013-08-11 19:32:00,
2013-08-11 14:37:00,96.6,66.0,28.56,North,0,4.0,9.0,37,0.00,,,0.00,meteohub,2013-08-11 19:37:00,
2013-08-11 14:42:00,97.0,67.1,28.56,South,180,0.0,9.0,38,0.00,,,0.00,meteohub,2013-08-11 19:42:00,
2013-08-11 14:47:00,97.7,65.5,28.56,South,180,5.0,6.0,35,0.00,,,0.00,meteohub,2013-08-11 19:47:00,
2013-08-11 14:52:00,98.1,65.7,28.56,SE,135,5.0,5.0,35,0.00,,,0.00,meteohub,2013-08-11 19:52:00,
2013-08-11 14:57:00,98.1,67.3,28.55,SE,135,1.0,7.0,37,0.00,,,0.00,meteohub,2013-08-11 19:57:00,
2013-08-11 15:02:00,97.9,65.7,28.55,SE,135,2.0,7.0,35,0.00,,,0.00,meteohub,2013-08-11 20:02:00,
2013-08-11 15:07:00,98.1,65.7,28.55,South,180,1.0,7.0,35,0.00,,,0.00,meteohub,2013-08-11 20:07:00,
2013-08-11 15:12:00,97.9,66.4,28.55,East,90,1.0,2.0,36,0.00,,,0.00,meteohub,2013-08-11 20:12:00,
2013-08-11 15:17:00,97.3,65.1,28.54,East,90,0.0,2.0,35,0.00,,,0.00,meteohub,2013-08-11 20:17:00,
2013-08-11 15:23:00,97.5,67.6,28.54,South,180,1.0,2.0,38,0.00,,,0.00,meteohub,2013-08-11 20:23:00,
2013-08-11 15:28:00,98.4,65.1,28.54,SW,225,4.0,4.0,34,0.00,,,0.00,meteohub,2013-08-11 20:28:00,
2013-08-11 15:34:00,99.0,66.6,28.54,NE,45,1.0,5.0,35,0.00,,,0.00,meteohub,2013-08-11 20:34:00,
2013-08-11 15:39:00,97.9,64.8,28.54,West,270,4.0,5.0,34,0.00,,,0.00,meteohub,2013-08-11 20:39:00,
2013-08-11 15:44:00,96.3,64.9,28.53,West,270,7.0,7.0,36,0.00,,,0.00,meteohub,2013-08-11 20:44:00,
2013-08-11 15:49:00,95.7,65.3,28.53,SW,225,4.0,11.0,37,0.00,,,0.00,meteohub,2013-08-11 20:49:00,
2013-08-11 15:54:00,96.8,65.5,28.53,South,180,7.0,11.0,36,0.00,,,0.00,meteohub,2013-08-11 20:54:00,
2013-08-11 16:00:00,96.4,65.1,28.53,SE,135,6.0,11.0,36,0.00,,,0.00,meteohub,2013-08-11 21:00:00,
2013-08-11 16:05:00,96.1,66.4,28.52,East,90,1.0,8.0,38,0.00,,,0.00,meteohub,2013-08-11 21:05:00,
2013-08-11 16:10:00,96.1,65.7,28.52,SE,135,1.0,8.0,37,0.00,,,0.00,meteohub,2013-08-11 21:10:00,
2013-08-11 16:15:00,96.1,64.8,28.52,SE,135,3.0,4.0,36,0.00,,,0.00,meteohub,2013-08-11 21:15:00,
2013-08-11 16:20:00,95.9,65.5,28.52,SE,135,1.0,4.0,37,0.00,,,0.00,meteohub,2013-08-11 21:20:00,
2013-08-11 16:25:00,96.1,65.7,28.52,South,180,0.0,4.0,37,0.00,,,0.00,meteohub,2013-08-11 21:25:00,
2013-08-11 16:30:00,96.4,65.1,28.52,East,90,1.0,3.0,36,0.00,,,0.00,meteohub,2013-08-11 21:30:00,
2013-08-11 16:36:00,97.5,64.4,28.51,SW,225,6.0,6.0,34,0.00,,,0.00,meteohub,2013-08-11 21:36:00,
2013-08-11 16:41:00,96.6,64.4,28.51,SW,225,4.0,7.0,35,0.00,,,0.00,meteohub,2013-08-11 21:41:00,
2013-08-11 16:46:00,96.3,64.9,28.51,West,270,4.0,7.0,36,0.00,,,0.00,meteohub,2013-08-11 21:46:00,
2013-08-11 16:51:00,96.6,66.0,28.51,East,90,2.0,7.0,37,0.00,,,0.00,meteohub,2013-08-11 21:51:00,
2013-08-11 16:56:00,97.7,65.5,28.51,North,0,1.0,5.0,35,0.00,,,0.00,meteohub,2013-08-11 21:56:00,
2013-08-11 17:01:00,99.0,65.7,28.51,NE,45,3.0,4.0,34,0.00,,,0.00,meteohub,2013-08-11 22:01:00,
2013-08-11 17:06:00,100.0,64.0,28.51,SE,135,1.0,4.0,31,0.00,,,0.00,meteohub,2013-08-11 22:06:00,
2013-08-11 17:11:00,100.6,63.5,28.50,West,270,2.0,4.0,30,0.00,,,0.00,meteohub,2013-08-11 22:11:00,
2013-08-11 17:17:00,100.9,63.9,28.50,NE,45,1.0,4.0,30,0.00,,,0.00,meteohub,2013-08-11 22:17:00,
2013-08-11 17:22:00,100.4,63.3,28.49,NW,315,4.0,4.0,30,0.00,,,0.00,meteohub,2013-08-11 22:22:00,
2013-08-11 17:27:00,99.5,63.5,28.49,North,0,1.0,6.0,31,0.00,,,0.00,meteohub,2013-08-11 22:27:00,
2013-08-11 17:32:00,100.0,64.0,28.49,NW,315,1.0,6.0,31,0.00,,,0.00,meteohub,2013-08-11 22:32:00,
2013-08-11 17:37:00,100.9,63.9,28.49,East,90,1.0,6.0,30,0.00,,,0.00,meteohub,2013-08-11 22:37:00,
2013-08-11 17:43:00,100.4,63.3,28.49,NE,45,1.0,3.0,30,0.00,,,0.00,meteohub,2013-08-11 22:43:00,
2013-08-11 17:48:00,99.1,63.1,28.49,East,90,8.0,8.0,31,0.00,,,0.00,meteohub,2013-08-11 22:48:00,
2013-08-11 17:53:00,97.3,63.5,28.48,SE,135,1.0,9.0,33,0.00,,,0.00,meteohub,2013-08-11 22:53:00,
2013-08-11 17:59:00,97.0,64.0,28.48,NE,45,1.0,9.0,34,0.00,,,0.00,meteohub,2013-08-11 22:59:00,
2013-08-11 18:00:00,97.0,64.0,28.49,SE,135,2.0,9.0,34,0.00,,,0.00,meteohub,2013-08-11 23:00:00,
2013-08-11 18:07:00,96.4,64.4,28.48,East,90,1.0,2.0,35,0.00,,,0.00,meteohub,2013-08-11 23:07:00,
2013-08-11 18:15:00,97.5,65.3,28.48,NE,45,1.0,2.0,35,0.00,,,0.00,meteohub,2013-08-11 23:15:00,
2013-08-11 18:20:00,98.6,63.7,28.48,North,0,1.0,1.0,32,0.00,,,0.00,meteohub,2013-08-11 23:20:00,
2013-08-11 18:25:00,99.0,64.8,28.47,SE,135,2.0,8.0,33,0.00,,,0.00,meteohub,2013-08-11 23:25:00,
2013-08-11 18:30:00,98.6,64.6,28.47,NW,315,4.0,8.0,33,0.00,,,0.00,meteohub,2013-08-11 23:30:00,
2013-08-11 18:35:00,97.2,64.0,28.48,East,90,1.0,8.0,34,0.00,,,0.00,meteohub,2013-08-11 23:35:00,
2013-08-11 18:40:00,96.1,64.8,28.47,North,0,1.0,7.0,36,0.00,,,0.00,meteohub,2013-08-11 23:40:00,
2013-08-11 18:45:00,95.4,64.9,28.48,East,90,3.0,6.0,37,0.00,,,0.00,meteohub,2013-08-11 23:45:00,
2013-08-11 18:50:00,94.6,65.1,28.48,NE,45,8.0,8.0,38,0.00,,,0.00,meteohub,2013-08-11 23:50:00,
2013-08-11 18:56:00,94.3,65.5,28.48,SE,135,4.0,8.0,39,0.00,,,0.00,meteohub,2013-08-11 23:56:00,
2013-08-11 19:01:00,94.1,66.0,28.48,NE,45,2.0,8.0,40,0.00,,,0.00,meteohub,2013-08-12 00:01:00,
2013-08-11 19:06:00,93.6,65.7,28.48,SE,135,2.0,8.0,40,0.00,,,0.00,meteohub,2013-08-12 00:06:00,
2013-08-11 19:11:00,93.7,65.8,28.48,East,90,2.0,5.0,40,0.00,,,0.00,meteohub,2013-08-12 00:11:00,
2013-08-11 19:16:00,93.2,65.3,28.48,NE,45,1.0,5.0,40,0.00,,,0.00,meteohub,2013-08-12 00:16:00,
2013-08-11 19:21:00,93.2,65.3,28.48,East,90,4.0,12.0,40,0.00,,,0.00,meteohub,2013-08-12 00:21:00,
2013-08-11 19:26:00,93.0,65.8,28.48,East,90,14.0,14.0,41,0.00,,,0.00,meteohub,2013-08-12 00:26:00,
2013-08-11 19:31:00,91.0,66.7,28.49,East,90,9.0,15.0,45,0.00,,,0.00,meteohub,2013-08-12 00:31:00,
2013-08-11 19:37:00,89.1,67.5,28.49,SE,135,15.0,15.0,49,0.00,,,0.00,meteohub,2013-08-12 00:37:00,
2013-08-11 19:42:00,87.6,66.7,28.50,North,0,18.0,18.0,50,0.00,,,0.00,meteohub,2013-08-12 00:42:00,
2013-08-11 19:47:00,86.2,67.1,28.50,SE,135,8.0,18.0,53,0.00,,,0.00,meteohub,2013-08-12 00:47:00,
2013-08-11 19:52:00,84.6,66.6,28.50,SE,135,7.0,18.0,55,0.00,,,0.00,meteohub,2013-08-12 00:52:00,
2013-08-11 19:57:00,83.7,66.4,28.50,East,90,15.0,18.0,56,0.00,,,0.00,meteohub,2013-08-12 00:57:00,
2013-08-11 20:03:00,83.5,65.1,28.50,ENE,68,1.0,17.0,54,0.00,,,0.00,meteohub,2013-08-12 01:03:00,
2013-08-11 20:08:00,83.5,65.1,28.50,East,90,2.0,17.0,54,0.00,,,0.00,meteohub,2013-08-12 01:08:00,
2013-08-11 20:13:00,83.5,65.1,28.50,NE,45,5.0,17.0,54,0.00,,,0.00,meteohub,2013-08-12 01:13:00,
2013-08-11 20:18:00,83.5,65.1,28.50,SE,135,2.0,14.0,54,0.00,,,0.00,meteohub,2013-08-12 01:18:00,
2013-08-11 20:23:00,83.7,64.8,28.49,East,90,0.0,12.0,53,0.00,,,0.00,meteohub,2013-08-12 01:23:00,
2013-08-11 20:28:00,83.8,64.9,28.50,NE,45,1.0,11.0,53,0.00,,,0.00,meteohub,2013-08-12 01:28:00,
2013-08-11 20:33:00,84.2,65.7,28.51,NE,45,8.0,11.0,54,0.00,,,0.00,meteohub,2013-08-12 01:33:00,
2013-08-11 20:38:00,83.5,67.1,28.52,North,0,12.0,12.0,58,0.00,,,0.00,meteohub,2013-08-12 01:38:00,
2013-08-11 20:44:00,82.4,70.0,28.54,NW,315,21.0,21.0,66,0.00,,,0.00,meteohub,2013-08-12 01:44:00,
2013-08-11 20:49:00,79.5,70.9,28.55,North,0,7.0,15.0,75,0.00,,,0.00,meteohub,2013-08-12 01:49:00,
2013-08-11 20:54:00,79.0,69.6,28.53,North,0,12.0,22.0,73,0.00,,,0.00,meteohub,2013-08-12 01:54:00,
2013-08-11 21:00:00,79.7,68.5,28.53,NW,315,15.0,22.0,69,0.00,,,0.00,meteohub,2013-08-12 02:00:00,
2013-08-11 21:05:00,79.9,68.4,28.54,NW,315,7.0,22.0,68,0.00,,,0.00,meteohub,2013-08-12 02:05:00,
2013-08-11 21:10:00,79.5,69.3,28.54,SW,225,13.0,19.0,71,0.00,,,0.00,meteohub,2013-08-12 02:10:00,
2013-08-11 21:15:00,78.8,69.4,28.54,North,0,9.0,19.0,73,0.00,,,0.00,meteohub,2013-08-12 02:15:00,
2013-08-11 21:20:00,78.1,70.0,28.54,NW,315,5.0,15.0,76,0.00,,,0.00,meteohub,2013-08-12 02:20:00,
2013-08-11 21:25:00,77.4,70.3,28.54,North,0,7.0,13.0,79,0.00,,,0.00,meteohub,2013-08-12 02:25:00,
2013-08-11 21:30:00,77.4,70.0,28.53,North,0,7.0,11.0,78,0.00,,,0.00,meteohub,2013-08-12 02:30:00,
2013-08-11 21:35:00,77.5,68.5,28.53,North,0,9.0,11.0,74,0.00,,,0.00,meteohub,2013-08-12 02:35:00,
2013-08-11 21:40:00,77.9,67.8,28.53,NE,45,8.0,14.0,71,0.00,,,0.00,meteohub,2013-08-12 02:40:00,
2013-08-11 21:46:00,77.7,68.0,28.54,North,0,5.0,14.0,72,0.00,,,0.00,meteohub,2013-08-12 02:46:00,
2013-08-11 21:51:00,77.4,68.4,28.54,NE,45,6.0,14.0,74,0.00,,,0.00,meteohub,2013-08-12 02:51:00,
2013-08-11 21:56:00,77.4,68.9,28.54,SE,135,6.0,10.0,75,0.00,,,0.00,meteohub,2013-08-12 02:56:00,
2013-08-11 22:01:00,77.7,68.7,28.55,West,270,6.0,8.0,74,0.00,,,0.00,meteohub,2013-08-12 03:01:00,
2013-08-11 22:06:00,78.1,68.4,28.55,North,0,1.0,8.0,72,0.00,,,0.00,meteohub,2013-08-12 03:06:00,
2013-08-11 22:11:00,78.6,67.6,28.55,NE,45,3.0,7.0,69,0.00,,,0.00,meteohub,2013-08-12 03:11:00,
2013-08-11 22:16:00,79.0,67.1,28.56,NE,45,2.0,6.0,67,0.00,,,0.00,meteohub,2013-08-12 03:16:00,
2013-08-11 22:21:00,79.2,66.7,28.56,NE,45,1.0,6.0,66,0.00,,,0.00,meteohub,2013-08-12 03:21:00,
2013-08-11 22:26:00,79.3,66.6,28.56,North,0,1.0,6.0,65,0.00,,,0.00,meteohub,2013-08-12 03:26:00,
2013-08-11 22:31:00,79.7,66.9,28.56,NE,45,1.0,4.0,65,0.00,,,0.00,meteohub,2013-08-12 03:31:00,
2013-08-11 22:36:00,79.9,67.1,28.56,NE,45,2.0,4.0,65,0.00,,,0.00,meteohub,2013-08-12 03:36:00,
2013-08-11 22:42:00,79.9,67.1,28.55,NE,45,2.0,6.0,65,0.00,,,0.00,meteohub,2013-08-12 03:42:00,
2013-08-11 22:47:00,80.2,67.8,28.55,NE,45,3.0,6.0,66,0.00,,,0.00,meteohub,2013-08-12 03:47:00,
2013-08-11 22:52:00,80.6,68.2,28.55,SE,135,1.0,4.0,66,0.00,,,0.00,meteohub,2013-08-12 03:52:00,
2013-08-11 22:57:00,80.4,68.9,28.56,SW,225,2.0,4.0,68,0.00,,,0.00,meteohub,2013-08-12 03:57:00,
2013-08-11 23:01:00,80.6,69.4,28.57,NE,45,1.0,5.0,69,0.00,,,0.00,meteohub,2013-08-12 04:01:00,
2013-08-11 23:02:00,80.6,69.4,28.57,North,0,1.0,5.0,69,0.00,,,0.00,meteohub,2013-08-12 04:02:00,
2013-08-11 23:05:00,80.4,69.3,28.57,West,270,2.0,5.0,69,0.00,,,0.00,meteohub,2013-08-12 04:05:00,
2013-08-11 23:10:00,79.3,70.0,28.57,NW,315,8.0,11.0,73,0.00,,,0.00,meteohub,2013-08-12 04:10:00,
2013-08-11 23:15:00,78.3,70.0,28.58,North,0,7.0,11.0,76,0.00,,,0.00,meteohub,2013-08-12 04:15:00,
2013-08-11 23:20:00,78.4,69.8,28.58,NE,45,7.0,11.0,75,0.00,,,0.00,meteohub,2013-08-12 04:20:00,
2013-08-11 23:25:00,78.4,70.2,28.58,NE,45,1.0,8.0,76,0.00,,,0.00,meteohub,2013-08-12 04:25:00,
2013-08-11 23:30:00,78.1,71.1,28.58,East,90,5.0,7.0,79,0.00,,,0.00,meteohub,2013-08-12 04:30:00,
2013-08-11 23:35:00,77.4,71.1,28.60,South,180,2.0,7.0,81,0.02,,,0.02,meteohub,2013-08-12 04:35:00,
2013-08-11 23:40:00,75.9,71.8,28.62,WSW,248,11.0,16.0,87,0.06,,,0.06,meteohub,2013-08-12 04:40:00,
2013-08-11 23:46:00,74.7,71.8,28.62,SW,225,15.0,16.0,91,0.07,,,0.07,meteohub,2013-08-12 04:46:00,
2013-08-11 23:51:00,73.9,72.7,28.62,SW,225,15.0,16.0,96,0.09,,,0.09,meteohub,2013-08-12 04:51:00,
2013-08-11 23:56:00,73.8,73.4,28.63,SW,225,19.0,19.0,99,0.12,,,0.12,meteohub,2013-08-12 04:56:00,